sensor_id;sensor_type;location;lat;lon;timestamp;temperature;humidity
20125;DHT22;10223;50.862;4.360;2022-10-16T00:01:10;15.30;99.90
20125;DHT22;10223;50.862;4.360;2022-10-16T00:03:38;15.20;99.90
20125;DHT22;10223;50.862;4.360;2022-10-16T00:06:06;15.10;99.90
20125;DHT22;10223;50.862;4.360;2022-10-16T00:08:34;15.00;99.90
20125;DHT22;10223;50.862;4.360;2022-10-16T00:11:02;15.00;99.90
20125;DHT22;10223;50.862;4.360;2022-10-16T00:13:32;15.10;99.90
20125;DHT22;10223;50.862;4.360;2022-10-16T00:16:00;15.10;99.90
20125;DHT22;10223;50.862;4.360;2022-10-16T00:18:27;14.90;99.90
20125;DHT22;10223;50.862;4.360;2022-10-16T00:20:55;14.90;99.90
20125;DHT22;10223;50.862;4.360;2022-10-16T00:23:22;14.80;99.90
20125;DHT22;10223;50.862;4.360;2022-10-16T00:25:55;14.70;99.90
20125;DHT22;10223;50.862;4.360;2022-10-16T00:28:23;14.80;99.90
20125;DHT22;10223;50.862;4.360;2022-10-16T00:30:51;14.80;99.90
20125;DHT22;10223;50.862;4.360;2022-10-16T00:33:19;14.80;99.90
20125;DHT22;10223;50.862;4.360;2022-10-16T00:35:46;14.90;99.90
20125;DHT22;10223;50.862;4.360;2022-10-16T00:38:13;14.90;99.90
20125;DHT22;10223;50.862;4.360;2022-10-16T00:40:40;14.90;99.90
20125;DHT22;10223;50.862;4.360;2022-10-16T00:43:12;15.00;99.90
20125;DHT22;10223;50.862;4.360;2022-10-16T00:45:40;14.90;99.90
20125;DHT22;10223;50.862;4.360;2022-10-16T00:48:11;14.90;99.90
20125;DHT22;10223;50.862;4.360;2022-10-16T00:50:39;14.90;99.90
20125;DHT22;10223;50.862;4.360;2022-10-16T00:53:09;14.90;99.90
20125;DHT22;10223;50.862;4.360;2022-10-16T00:55:36;15.00;99.90
20125;DHT22;10223;50.862;4.360;2022-10-16T00:58:03;14.90;99.90
20125;DHT22;10223;50.862;4.360;2022-10-16T01:00:30;14.70;99.90
20125;DHT22;10223;50.862;4.360;2022-10-16T01:02:59;14.70;99.90
20125;DHT22;10223;50.862;4.360;2022-10-16T01:05:33;14.70;99.90
20125;DHT22;10223;50.862;4.360;2022-10-16T01:08:08;14.60;99.90
20125;DHT22;10223;50.862;4.360;2022-10-16T01:10:44;14.60;99.90
20125;DHT22;10223;50.862;4.360;2022-10-16T01:13:19;14.60;99.90
20125;DHT22;10223;50.862;4.360;2022-10-16T01:15:50;14.60;99.90
20125;DHT22;10223;50.862;4.360;2022-10-16T01:18:26;14.70;99.90
20125;DHT22;10223;50.862;4.360;2022-10-16T01:21:01;14.60;99.90
20125;DHT22;10223;50.862;4.360;2022-10-16T01:23:39;14.70;99.90
20125;DHT22;10223;50.862;4.360;2022-10-16T01:26:15;14.60;99.90
20125;DHT22;10223;50.862;4.360;2022-10-16T01:28:53;14.70;99.90
20125;DHT22;10223;50.862;4.360;2022-10-16T01:31:24;14.80;99.90
20125;DHT22;10223;50.862;4.360;2022-10-16T01:33:56;14.80;99.90
20125;DHT22;10223;50.862;4.360;2022-10-16T01:36:28;14.70;99.90
20125;DHT22;10223;50.862;4.360;2022-10-16T01:39:01;14.60;99.90
20125;DHT22;10223;50.862;4.360;2022-10-16T01:41:31;14.60;99.90
20125;DHT22;10223;50.862;4.360;2022-10-16T01:44:03;14.70;99.90
20125;DHT22;10223;50.862;4.360;2022-10-16T01:46:32;14.70;99.90
20125;DHT22;10223;50.862;4.360;2022-10-16T01:49:00;14.60;99.90
20125;DHT22;10223;50.862;4.360;2022-10-16T01:51:29;14.60;99.90
20125;DHT22;10223;50.862;4.360;2022-10-16T01:53:58;14.60;99.90
20125;DHT22;10223;50.862;4.360;2022-10-16T01:56:28;14.70;99.90
20125;DHT22;10223;50.862;4.360;2022-10-16T01:59:00;14.70;99.90
20125;DHT22;10223;50.862;4.360;2022-10-16T02:01:31;14.60;99.90
20125;DHT22;10223;50.862;4.360;2022-10-16T02:04:03;14.50;99.90
20125;DHT22;10223;50.862;4.360;2022-10-16T02:06:32;14.50;99.90
20125;DHT22;10223;50.862;4.360;2022-10-16T02:09:00;14.60;99.90
20125;DHT22;10223;50.862;4.360;2022-10-16T02:11:27;14.50;99.90
20125;DHT22;10223;50.862;4.360;2022-10-16T02:13:57;14.50;99.90
20125;DHT22;10223;50.862;4.360;2022-10-16T02:16:33;14.40;99.90
20125;DHT22;10223;50.862;4.360;2022-10-16T02:19:00;14.50;99.90
20125;DHT22;10223;50.862;4.360;2022-10-16T02:21:31;14.50;99.90
20125;DHT22;10223;50.862;4.360;2022-10-16T02:24:03;14.50;99.90
20125;DHT22;10223;50.862;4.360;2022-10-16T02:26:39;14.50;99.90
20125;DHT22;10223;50.862;4.360;2022-10-16T02:29:10;14.50;99.90
20125;DHT22;10223;50.862;4.360;2022-10-16T02:31:43;14.50;99.90
20125;DHT22;10223;50.862;4.360;2022-10-16T02:34:13;14.40;99.90
20125;DHT22;10223;50.862;4.360;2022-10-16T02:36:42;14.40;99.90
20125;DHT22;10223;50.862;4.360;2022-10-16T02:39:10;14.30;99.90
20125;DHT22;10223;50.862;4.360;2022-10-16T02:41:38;14.30;99.90
20125;DHT22;10223;50.862;4.360;2022-10-16T02:44:05;14.30;99.90
20125;DHT22;10223;50.862;4.360;2022-10-16T02:46:32;14.20;99.90
20125;DHT22;10223;50.862;4.360;2022-10-16T02:49:00;14.20;99.90
20125;DHT22;10223;50.862;4.360;2022-10-16T02:51:27;14.30;99.90
20125;DHT22;10223;50.862;4.360;2022-10-16T02:53:54;14.30;99.90
20125;DHT22;10223;50.862;4.360;2022-10-16T02:56:21;14.20;99.90
20125;DHT22;10223;50.862;4.360;2022-10-16T02:58:48;14.10;99.90
20125;DHT22;10223;50.862;4.360;2022-10-16T03:01:15;14.20;99.90
20125;DHT22;10223;50.862;4.360;2022-10-16T03:03:42;14.10;99.90
20125;DHT22;10223;50.862;4.360;2022-10-16T03:06:11;14.20;99.90
20125;DHT22;10223;50.862;4.360;2022-10-16T03:08:38;14.20;99.90
20125;DHT22;10223;50.862;4.360;2022-10-16T03:11:05;14.20;99.90
20125;DHT22;10223;50.862;4.360;2022-10-16T03:13:32;14.20;99.90
20125;DHT22;10223;50.862;4.360;2022-10-16T03:15:59;14.30;99.90
20125;DHT22;10223;50.862;4.360;2022-10-16T03:18:26;14.20;99.90
20125;DHT22;10223;50.862;4.360;2022-10-16T03:20:53;14.20;99.90
20125;DHT22;10223;50.862;4.360;2022-10-16T03:23:21;14.10;99.90
20125;DHT22;10223;50.862;4.360;2022-10-16T03:25:48;14.00;99.90
20125;DHT22;10223;50.862;4.360;2022-10-16T03:28:15;14.10;99.90
20125;DHT22;10223;50.862;4.360;2022-10-16T03:30:43;14.20;99.90
20125;DHT22;10223;50.862;4.360;2022-10-16T03:33:09;14.30;99.90
20125;DHT22;10223;50.862;4.360;2022-10-16T03:35:36;14.20;99.90
20125;DHT22;10223;50.862;4.360;2022-10-16T03:38:03;14.10;99.90
20125;DHT22;10223;50.862;4.360;2022-10-16T03:40:32;14.20;99.90
20125;DHT22;10223;50.862;4.360;2022-10-16T03:42:59;14.30;99.90
20125;DHT22;10223;50.862;4.360;2022-10-16T03:45:26;14.20;99.90
20125;DHT22;10223;50.862;4.360;2022-10-16T03:47:53;14.20;99.90
20125;DHT22;10223;50.862;4.360;2022-10-16T03:50:20;14.10;99.90
20125;DHT22;10223;50.862;4.360;2022-10-16T03:52:46;14.10;99.90
20125;DHT22;10223;50.862;4.360;2022-10-16T03:55:13;14.20;99.90
20125;DHT22;10223;50.862;4.360;2022-10-16T03:57:42;14.20;99.90
20125;DHT22;10223;50.862;4.360;2022-10-16T04:00:10;14.30;99.90
20125;DHT22;10223;50.862;4.360;2022-10-16T04:02:37;14.40;99.90
20125;DHT22;10223;50.862;4.360;2022-10-16T04:05:05;14.40;99.90
20125;DHT22;10223;50.862;4.360;2022-10-16T04:07:32;14.40;99.90
20125;DHT22;10223;50.862;4.360;2022-10-16T04:09:59;14.30;99.90
20125;DHT22;10223;50.862;4.360;2022-10-16T04:12:26;14.20;99.90
20125;DHT22;10223;50.862;4.360;2022-10-16T04:14:54;14.20;99.90
20125;DHT22;10223;50.862;4.360;2022-10-16T04:17:21;14.10;99.90
20125;DHT22;10223;50.862;4.360;2022-10-16T04:19:48;14.10;99.90
20125;DHT22;10223;50.862;4.360;2022-10-16T04:22:15;14.30;99.90
20125;DHT22;10223;50.862;4.360;2022-10-16T04:24:42;14.30;99.90
20125;DHT22;10223;50.862;4.360;2022-10-16T04:27:09;14.30;99.90
20125;DHT22;10223;50.862;4.360;2022-10-16T04:29:36;14.20;99.90
20125;DHT22;10223;50.862;4.360;2022-10-16T04:32:04;14.20;99.90
20125;DHT22;10223;50.862;4.360;2022-10-16T04:34:31;14.30;99.90
20125;DHT22;10223;50.862;4.360;2022-10-16T04:36:58;14.30;99.90
20125;DHT22;10223;50.862;4.360;2022-10-16T04:39:25;14.30;99.90
20125;DHT22;10223;50.862;4.360;2022-10-16T04:41:52;14.30;99.90
20125;DHT22;10223;50.862;4.360;2022-10-16T04:44:19;14.30;99.90
20125;DHT22;10223;50.862;4.360;2022-10-16T04:46:45;14.30;99.90
20125;DHT22;10223;50.862;4.360;2022-10-16T04:49:14;14.40;99.90
20125;DHT22;10223;50.862;4.360;2022-10-16T04:51:41;14.50;99.90
20125;DHT22;10223;50.862;4.360;2022-10-16T04:54:08;14.30;99.90
20125;DHT22;10223;50.862;4.360;2022-10-16T04:56:35;14.40;99.90
20125;DHT22;10223;50.862;4.360;2022-10-16T04:59:09;14.30;99.90
20125;DHT22;10223;50.862;4.360;2022-10-16T05:01:35;14.20;99.90
20125;DHT22;10223;50.862;4.360;2022-10-16T05:04:02;14.30;99.90
20125;DHT22;10223;50.862;4.360;2022-10-16T05:06:31;14.30;99.90
20125;DHT22;10223;50.862;4.360;2022-10-16T05:08:58;14.20;99.90
20125;DHT22;10223;50.862;4.360;2022-10-16T05:11:25;14.10;99.90
20125;DHT22;10223;50.862;4.360;2022-10-16T05:13:51;14.10;99.90
20125;DHT22;10223;50.862;4.360;2022-10-16T05:16:18;14.10;99.90
20125;DHT22;10223;50.862;4.360;2022-10-16T05:18:45;14.10;99.90
20125;DHT22;10223;50.862;4.360;2022-10-16T05:21:12;14.10;99.90
20125;DHT22;10223;50.862;4.360;2022-10-16T05:23:41;14.10;99.90
20125;DHT22;10223;50.862;4.360;2022-10-16T05:26:08;14.20;99.90
20125;DHT22;10223;50.862;4.360;2022-10-16T05:28:35;14.10;99.90
20125;DHT22;10223;50.862;4.360;2022-10-16T05:31:04;14.00;99.90
20125;DHT22;10223;50.862;4.360;2022-10-16T05:33:31;14.00;99.90
20125;DHT22;10223;50.862;4.360;2022-10-16T05:36:01;14.00;99.90
20125;DHT22;10223;50.862;4.360;2022-10-16T05:38:28;14.00;99.90
20125;DHT22;10223;50.862;4.360;2022-10-16T05:40:56;13.90;99.90
20125;DHT22;10223;50.862;4.360;2022-10-16T05:43:23;14.00;99.90
20125;DHT22;10223;50.862;4.360;2022-10-16T05:45:54;14.00;99.90
20125;DHT22;10223;50.862;4.360;2022-10-16T05:48:21;14.00;99.90
20125;DHT22;10223;50.862;4.360;2022-10-16T05:50:53;14.10;99.90
20125;DHT22;10223;50.862;4.360;2022-10-16T05:53:22;14.10;99.90
20125;DHT22;10223;50.862;4.360;2022-10-16T05:55:52;14.10;99.90
20125;DHT22;10223;50.862;4.360;2022-10-16T05:58:20;14.10;99.90
20125;DHT22;10223;50.862;4.360;2022-10-16T06:00:53;14.20;99.90
20125;DHT22;10223;50.862;4.360;2022-10-16T06:03:20;14.10;99.90
20125;DHT22;10223;50.862;4.360;2022-10-16T06:05:47;14.10;99.90
20125;DHT22;10223;50.862;4.360;2022-10-16T06:08:14;14.00;99.90
20125;DHT22;10223;50.862;4.360;2022-10-16T06:10:41;14.00;99.90
20125;DHT22;10223;50.862;4.360;2022-10-16T06:13:09;14.10;99.90
20125;DHT22;10223;50.862;4.360;2022-10-16T06:15:37;14.00;99.90
20125;DHT22;10223;50.862;4.360;2022-10-16T06:18:07;14.10;99.90
20125;DHT22;10223;50.862;4.360;2022-10-16T06:20:34;14.10;99.90
20125;DHT22;10223;50.862;4.360;2022-10-16T06:23:01;14.10;99.90
20125;DHT22;10223;50.862;4.360;2022-10-16T06:25:29;14.30;99.90
20125;DHT22;10223;50.862;4.360;2022-10-16T06:27:56;14.30;99.90
20125;DHT22;10223;50.862;4.360;2022-10-16T06:30:23;14.30;99.90
20125;DHT22;10223;50.862;4.360;2022-10-16T06:32:51;14.40;99.90
20125;DHT22;10223;50.862;4.360;2022-10-16T06:35:18;14.30;99.90
20125;DHT22;10223;50.862;4.360;2022-10-16T06:37:45;14.20;99.90
20125;DHT22;10223;50.862;4.360;2022-10-16T06:40:12;14.30;99.90
20125;DHT22;10223;50.862;4.360;2022-10-16T06:42:40;14.30;99.90
20125;DHT22;10223;50.862;4.360;2022-10-16T06:45:07;14.30;99.90
20125;DHT22;10223;50.862;4.360;2022-10-16T06:47:34;14.40;99.90
20125;DHT22;10223;50.862;4.360;2022-10-16T06:50:03;14.50;99.90
20125;DHT22;10223;50.862;4.360;2022-10-16T06:52:32;14.60;99.90
20125;DHT22;10223;50.862;4.360;2022-10-16T06:54:59;14.80;99.90
20125;DHT22;10223;50.862;4.360;2022-10-16T06:57:26;14.80;99.90
20125;DHT22;10223;50.862;4.360;2022-10-16T06:59:53;14.70;99.90
20125;DHT22;10223;50.862;4.360;2022-10-16T07:02:20;14.80;99.90
20125;DHT22;10223;50.862;4.360;2022-10-16T07:04:47;14.60;99.90
20125;DHT22;10223;50.862;4.360;2022-10-16T07:07:15;14.70;99.90
20125;DHT22;10223;50.862;4.360;2022-10-16T07:09:42;14.60;99.90
20125;DHT22;10223;50.862;4.360;2022-10-16T07:12:09;14.80;99.90
20125;DHT22;10223;50.862;4.360;2022-10-16T07:14:36;15.00;99.90
20125;DHT22;10223;50.862;4.360;2022-10-16T07:17:03;15.10;99.90
20125;DHT22;10223;50.862;4.360;2022-10-16T07:19:30;15.20;99.90
20125;DHT22;10223;50.862;4.360;2022-10-16T07:21:57;15.60;99.90
20125;DHT22;10223;50.862;4.360;2022-10-16T07:24:25;15.60;99.90
20125;DHT22;10223;50.862;4.360;2022-10-16T07:26:52;16.00;99.90
20125;DHT22;10223;50.862;4.360;2022-10-16T07:29:20;16.10;99.90
20125;DHT22;10223;50.862;4.360;2022-10-16T07:31:48;16.20;99.90
20125;DHT22;10223;50.862;4.360;2022-10-16T07:34:17;16.20;99.90
20125;DHT22;10223;50.862;4.360;2022-10-16T07:36:44;16.10;99.90
20125;DHT22;10223;50.862;4.360;2022-10-16T07:39:11;16.10;99.90
20125;DHT22;10223;50.862;4.360;2022-10-16T07:41:39;16.30;99.90
20125;DHT22;10223;50.862;4.360;2022-10-16T07:44:06;16.10;99.90
20125;DHT22;10223;50.862;4.360;2022-10-16T07:46:33;16.10;99.90
20125;DHT22;10223;50.862;4.360;2022-10-16T07:49:01;16.30;99.90
20125;DHT22;10223;50.862;4.360;2022-10-16T07:51:28;16.50;99.90
20125;DHT22;10223;50.862;4.360;2022-10-16T07:53:55;16.60;99.90
20125;DHT22;10223;50.862;4.360;2022-10-16T07:56:23;16.90;99.90
20125;DHT22;10223;50.862;4.360;2022-10-16T07:58:51;17.10;99.90
20125;DHT22;10223;50.862;4.360;2022-10-16T08:01:19;16.70;99.90
20125;DHT22;10223;50.862;4.360;2022-10-16T08:03:47;16.90;99.90
20125;DHT22;10223;50.862;4.360;2022-10-16T08:06:14;17.10;99.90
20125;DHT22;10223;50.862;4.360;2022-10-16T08:08:41;17.30;99.90
20125;DHT22;10223;50.862;4.360;2022-10-16T08:11:08;17.30;99.90
20125;DHT22;10223;50.862;4.360;2022-10-16T08:13:35;17.40;99.90
20125;DHT22;10223;50.862;4.360;2022-10-16T08:16:05;17.50;99.90
20125;DHT22;10223;50.862;4.360;2022-10-16T08:18:34;17.30;99.90
20125;DHT22;10223;50.862;4.360;2022-10-16T08:21:01;17.10;99.90
20125;DHT22;10223;50.862;4.360;2022-10-16T08:23:30;17.30;99.90
20125;DHT22;10223;50.862;4.360;2022-10-16T08:26:02;17.60;99.90
20125;DHT22;10223;50.862;4.360;2022-10-16T08:28:30;17.30;99.90
20125;DHT22;10223;50.862;4.360;2022-10-16T08:31:06;17.30;99.90
20125;DHT22;10223;50.862;4.360;2022-10-16T08:33:33;17.20;99.90
20125;DHT22;10223;50.862;4.360;2022-10-16T08:36:01;17.40;99.90
20125;DHT22;10223;50.862;4.360;2022-10-16T08:38:29;17.60;99.90
20125;DHT22;10223;50.862;4.360;2022-10-16T08:41:02;18.00;99.90
20125;DHT22;10223;50.862;4.360;2022-10-16T08:43:43;18.30;99.90
20125;DHT22;10223;50.862;4.360;2022-10-16T08:46:24;18.10;99.90
20125;DHT22;10223;50.862;4.360;2022-10-16T08:48:56;18.40;99.90
20125;DHT22;10223;50.862;4.360;2022-10-16T08:51:25;18.20;99.90
20125;DHT22;10223;50.862;4.360;2022-10-16T08:53:56;18.60;99.90
20125;DHT22;10223;50.862;4.360;2022-10-16T08:56:23;18.40;99.90
20125;DHT22;10223;50.862;4.360;2022-10-16T08:58:51;18.30;99.90
20125;DHT22;10223;50.862;4.360;2022-10-16T09:01:23;18.40;99.90
20125;DHT22;10223;50.862;4.360;2022-10-16T09:07:11;19.00;99.90
20125;DHT22;10223;50.862;4.360;2022-10-16T09:09:54;19.30;99.90
20125;DHT22;10223;50.862;4.360;2022-10-16T09:12:28;19.20;99.90
20125;DHT22;10223;50.862;4.360;2022-10-16T09:15:12;19.60;99.90
20125;DHT22;10223;50.862;4.360;2022-10-16T09:17:49;19.80;99.90
20125;DHT22;10223;50.862;4.360;2022-10-16T09:20:26;20.30;99.90
20125;DHT22;10223;50.862;4.360;2022-10-16T09:23:08;19.70;99.90
20125;DHT22;10223;50.862;4.360;2022-10-16T09:25:38;20.10;99.90
20125;DHT22;10223;50.862;4.360;2022-10-16T09:28:07;20.10;99.90
20125;DHT22;10223;50.862;4.360;2022-10-16T09:30:36;20.50;99.90
20125;DHT22;10223;50.862;4.360;2022-10-16T09:33:06;20.90;99.90
20125;DHT22;10223;50.862;4.360;2022-10-16T09:35:37;21.00;99.90
20125;DHT22;10223;50.862;4.360;2022-10-16T09:38:05;21.40;99.90
20125;DHT22;10223;50.862;4.360;2022-10-16T09:40:34;21.70;99.90
20125;DHT22;10223;50.862;4.360;2022-10-16T09:43:06;21.10;99.90
20125;DHT22;10223;50.862;4.360;2022-10-16T09:45:39;20.80;99.90
20125;DHT22;10223;50.862;4.360;2022-10-16T09:48:12;20.60;99.90
20125;DHT22;10223;50.862;4.360;2022-10-16T09:50:39;20.90;99.90
20125;DHT22;10223;50.862;4.360;2022-10-16T09:53:11;20.70;99.90
20125;DHT22;10223;50.862;4.360;2022-10-16T09:55:48;20.10;99.90
20125;DHT22;10223;50.862;4.360;2022-10-16T09:58:15;20.30;99.90
20125;DHT22;10223;50.862;4.360;2022-10-16T10:00:49;20.50;99.90
20125;DHT22;10223;50.862;4.360;2022-10-16T10:03:33;21.00;99.90
20125;DHT22;10223;50.862;4.360;2022-10-16T10:06:06;20.80;99.90
20125;DHT22;10223;50.862;4.360;2022-10-16T10:08:34;20.80;99.90
20125;DHT22;10223;50.862;4.360;2022-10-16T10:11:01;21.00;99.90
20125;DHT22;10223;50.862;4.360;2022-10-16T10:13:28;21.00;99.90
20125;DHT22;10223;50.862;4.360;2022-10-16T10:15:55;20.70;99.90
20125;DHT22;10223;50.862;4.360;2022-10-16T10:18:24;20.60;99.90
20125;DHT22;10223;50.862;4.360;2022-10-16T10:20:59;20.60;99.90
20125;DHT22;10223;50.862;4.360;2022-10-16T10:23:28;20.70;99.90
20125;DHT22;10223;50.862;4.360;2022-10-16T10:26:00;20.70;99.90
20125;DHT22;10223;50.862;4.360;2022-10-16T10:28:51;21.10;99.90
20125;DHT22;10223;50.862;4.360;2022-10-16T10:31:25;20.60;99.90
20125;DHT22;10223;50.862;4.360;2022-10-16T10:34:00;20.00;99.90
20125;DHT22;10223;50.862;4.360;2022-10-16T10:36:34;20.30;99.90
20125;DHT22;10223;50.862;4.360;2022-10-16T10:39:06;20.60;99.90
20125;DHT22;10223;50.862;4.360;2022-10-16T10:41:55;21.20;99.90
20125;DHT22;10223;50.862;4.360;2022-10-16T10:47:33;21.60;99.90
20125;DHT22;10223;50.862;4.360;2022-10-16T10:50:12;20.80;99.90
20125;DHT22;10223;50.862;4.360;2022-10-16T10:52:58;21.00;99.90
20125;DHT22;10223;50.862;4.360;2022-10-16T10:55:35;20.90;99.90
20125;DHT22;10223;50.862;4.360;2022-10-16T10:58:25;21.00;99.90
20125;DHT22;10223;50.862;4.360;2022-10-16T11:01:01;21.00;99.90
20125;DHT22;10223;50.862;4.360;2022-10-16T11:03:59;21.10;99.90
20125;DHT22;10223;50.862;4.360;2022-10-16T11:06:34;21.10;99.90
20125;DHT22;10223;50.862;4.360;2022-10-16T11:09:09;21.00;99.90
20125;DHT22;10223;50.862;4.360;2022-10-16T11:11:41;21.20;99.90
20125;DHT22;10223;50.862;4.360;2022-10-16T11:14:16;21.50;99.90
20125;DHT22;10223;50.862;4.360;2022-10-16T11:16:47;21.80;99.90
20125;DHT22;10223;50.862;4.360;2022-10-16T11:19:23;22.10;99.90
20125;DHT22;10223;50.862;4.360;2022-10-16T11:21:58;22.60;99.90
20125;DHT22;10223;50.862;4.360;2022-10-16T11:24:35;23.10;99.90
20125;DHT22;10223;50.862;4.360;2022-10-16T11:27:08;21.20;99.90
20125;DHT22;10223;50.862;4.360;2022-10-16T11:29:43;21.30;99.90
20125;DHT22;10223;50.862;4.360;2022-10-16T11:32:18;21.50;99.90
20125;DHT22;10223;50.862;4.360;2022-10-16T11:34:50;21.80;99.90
20125;DHT22;10223;50.862;4.360;2022-10-16T11:37:21;22.10;99.90
20125;DHT22;10223;50.862;4.360;2022-10-16T11:39:50;22.50;99.90
20125;DHT22;10223;50.862;4.360;2022-10-16T11:42:22;22.30;99.90
20125;DHT22;10223;50.862;4.360;2022-10-16T11:44:55;22.80;99.90
20125;DHT22;10223;50.862;4.360;2022-10-16T11:47:33;22.90;99.90
20125;DHT22;10223;50.862;4.360;2022-10-16T11:50:04;21.90;99.90
20125;DHT22;10223;50.862;4.360;2022-10-16T11:52:38;22.00;99.90
20125;DHT22;10223;50.862;4.360;2022-10-16T11:55:14;21.50;99.90
20125;DHT22;10223;50.862;4.360;2022-10-16T11:57:45;21.20;99.90
20125;DHT22;10223;50.862;4.360;2022-10-16T12:00:21;21.30;99.90
20125;DHT22;10223;50.862;4.360;2022-10-16T12:02:56;21.30;99.90
20125;DHT22;10223;50.862;4.360;2022-10-16T12:05:30;21.00;99.90
20125;DHT22;10223;50.862;4.360;2022-10-16T12:08:07;20.50;99.90
20125;DHT22;10223;50.862;4.360;2022-10-16T12:10:37;20.80;99.90
20125;DHT22;10223;50.862;4.360;2022-10-16T12:13:05;20.60;99.90
20125;DHT22;10223;50.862;4.360;2022-10-16T12:15:33;20.70;99.90
20125;DHT22;10223;50.862;4.360;2022-10-16T12:18:00;20.90;99.90
20125;DHT22;10223;50.862;4.360;2022-10-16T12:20:29;20.50;99.90
20125;DHT22;10223;50.862;4.360;2022-10-16T12:22:59;20.40;99.90
20125;DHT22;10223;50.862;4.360;2022-10-16T12:25:30;20.60;99.90
20125;DHT22;10223;50.862;4.360;2022-10-16T12:28:03;20.50;99.90
20125;DHT22;10223;50.862;4.360;2022-10-16T12:30:34;20.50;99.90
20125;DHT22;10223;50.862;4.360;2022-10-16T12:33:03;20.50;99.90
20125;DHT22;10223;50.862;4.360;2022-10-16T12:35:33;20.40;99.90
20125;DHT22;10223;50.862;4.360;2022-10-16T12:38:12;20.20;99.90
20125;DHT22;10223;50.862;4.360;2022-10-16T12:40:44;20.30;99.90
20125;DHT22;10223;50.862;4.360;2022-10-16T12:43:25;20.10;99.90
20125;DHT22;10223;50.862;4.360;2022-10-16T12:46:04;20.20;99.90
20125;DHT22;10223;50.862;4.360;2022-10-16T12:48:32;20.10;99.90
20125;DHT22;10223;50.862;4.360;2022-10-16T12:51:10;19.60;99.90
20125;DHT22;10223;50.862;4.360;2022-10-16T12:53:37;19.20;99.90
20125;DHT22;10223;50.862;4.360;2022-10-16T12:56:16;19.10;99.90
20125;DHT22;10223;50.862;4.360;2022-10-16T12:59:01;18.90;99.90
20125;DHT22;10223;50.862;4.360;2022-10-16T13:01:37;18.70;99.90
20125;DHT22;10223;50.862;4.360;2022-10-16T13:07:21;18.70;99.90
20125;DHT22;10223;50.862;4.360;2022-10-16T13:10:03;18.70;99.90
20125;DHT22;10223;50.862;4.360;2022-10-16T13:12:52;18.70;99.90
20125;DHT22;10223;50.862;4.360;2022-10-16T13:15:31;18.60;99.90
20125;DHT22;10223;50.862;4.360;2022-10-16T13:18:06;18.70;99.90
20125;DHT22;10223;50.862;4.360;2022-10-16T13:20:55;18.70;99.90
20125;DHT22;10223;50.862;4.360;2022-10-16T13:23:27;18.90;99.90
20125;DHT22;10223;50.862;4.360;2022-10-16T13:26:05;19.20;99.90
20125;DHT22;10223;50.862;4.360;2022-10-16T13:28:38;18.90;99.90
20125;DHT22;10223;50.862;4.360;2022-10-16T13:31:13;18.60;99.90
20125;DHT22;10223;50.862;4.360;2022-10-16T13:33:43;18.50;99.90
20125;DHT22;10223;50.862;4.360;2022-10-16T13:36:20;18.60;99.90
20125;DHT22;10223;50.862;4.360;2022-10-16T13:38:47;18.80;99.90
20125;DHT22;10223;50.862;4.360;2022-10-16T13:41:16;18.80;99.90
20125;DHT22;10223;50.862;4.360;2022-10-16T13:43:46;18.90;99.90
20125;DHT22;10223;50.862;4.360;2022-10-16T13:46:16;18.80;99.90
20125;DHT22;10223;50.862;4.360;2022-10-16T13:48:44;18.80;99.90
20125;DHT22;10223;50.862;4.360;2022-10-16T13:51:13;18.60;99.90
20125;DHT22;10223;50.862;4.360;2022-10-16T13:53:41;18.50;99.90
20125;DHT22;10223;50.862;4.360;2022-10-16T13:56:11;18.50;99.90
20125;DHT22;10223;50.862;4.360;2022-10-16T13:58:39;18.60;99.90
20125;DHT22;10223;50.862;4.360;2022-10-16T14:01:15;18.60;99.90
20125;DHT22;10223;50.862;4.360;2022-10-16T14:03:43;18.50;99.90
20125;DHT22;10223;50.862;4.360;2022-10-16T14:06:13;18.60;99.90
20125;DHT22;10223;50.862;4.360;2022-10-16T14:08:43;18.60;99.90
20125;DHT22;10223;50.862;4.360;2022-10-16T14:11:11;18.80;99.90
20125;DHT22;10223;50.862;4.360;2022-10-16T14:13:42;18.80;99.90
20125;DHT22;10223;50.862;4.360;2022-10-16T14:16:16;18.70;99.90
20125;DHT22;10223;50.862;4.360;2022-10-16T14:18:46;18.60;99.90
20125;DHT22;10223;50.862;4.360;2022-10-16T14:21:17;18.60;99.90
20125;DHT22;10223;50.862;4.360;2022-10-16T14:23:45;18.60;99.90
20125;DHT22;10223;50.862;4.360;2022-10-16T14:26:14;18.60;99.90
20125;DHT22;10223;50.862;4.360;2022-10-16T14:28:43;18.70;99.90
20125;DHT22;10223;50.862;4.360;2022-10-16T14:31:27;18.80;99.90
20125;DHT22;10223;50.862;4.360;2022-10-16T14:33:54;18.70;99.90
20125;DHT22;10223;50.862;4.360;2022-10-16T14:36:22;18.60;99.90
20125;DHT22;10223;50.862;4.360;2022-10-16T14:38:56;18.60;99.90
20125;DHT22;10223;50.862;4.360;2022-10-16T14:41:24;18.60;99.90
20125;DHT22;10223;50.862;4.360;2022-10-16T14:43:53;18.70;99.90
20125;DHT22;10223;50.862;4.360;2022-10-16T14:46:23;18.80;99.90
20125;DHT22;10223;50.862;4.360;2022-10-16T14:49:00;18.70;99.90
20125;DHT22;10223;50.862;4.360;2022-10-16T14:51:29;18.70;99.90
20125;DHT22;10223;50.862;4.360;2022-10-16T14:53:56;18.80;99.90
20125;DHT22;10223;50.862;4.360;2022-10-16T14:56:25;18.80;99.90
20125;DHT22;10223;50.862;4.360;2022-10-16T14:58:53;19.00;99.90
20125;DHT22;10223;50.862;4.360;2022-10-16T15:01:21;18.80;99.90
20125;DHT22;10223;50.862;4.360;2022-10-16T15:03:48;18.70;99.90
20125;DHT22;10223;50.862;4.360;2022-10-16T15:06:19;18.60;99.90
20125;DHT22;10223;50.862;4.360;2022-10-16T15:08:46;18.70;99.90
20125;DHT22;10223;50.862;4.360;2022-10-16T15:11:15;18.70;99.90
20125;DHT22;10223;50.862;4.360;2022-10-16T15:13:42;18.70;99.90
20125;DHT22;10223;50.862;4.360;2022-10-16T15:16:12;18.70;99.90
20125;DHT22;10223;50.862;4.360;2022-10-16T15:18:39;18.70;99.90
20125;DHT22;10223;50.862;4.360;2022-10-16T15:21:06;18.60;99.90
20125;DHT22;10223;50.862;4.360;2022-10-16T15:23:34;18.60;99.90
20125;DHT22;10223;50.862;4.360;2022-10-16T15:26:01;18.60;99.90
20125;DHT22;10223;50.862;4.360;2022-10-16T15:28:28;18.70;99.90
20125;DHT22;10223;50.862;4.360;2022-10-16T15:30:58;18.60;99.90
20125;DHT22;10223;50.862;4.360;2022-10-16T15:33:27;18.60;99.90
20125;DHT22;10223;50.862;4.360;2022-10-16T15:35:58;18.60;99.90
20125;DHT22;10223;50.862;4.360;2022-10-16T15:38:26;18.70;99.90
20125;DHT22;10223;50.862;4.360;2022-10-16T15:40:56;18.70;99.90
20125;DHT22;10223;50.862;4.360;2022-10-16T15:43:23;18.70;99.90
20125;DHT22;10223;50.862;4.360;2022-10-16T15:45:59;18.70;99.90
20125;DHT22;10223;50.862;4.360;2022-10-16T15:48:27;18.70;99.90
20125;DHT22;10223;50.862;4.360;2022-10-16T15:50:53;18.90;99.90
20125;DHT22;10223;50.862;4.360;2022-10-16T15:53:20;19.10;99.90
20125;DHT22;10223;50.862;4.360;2022-10-16T15:55:47;19.00;99.90
20125;DHT22;10223;50.862;4.360;2022-10-16T15:58:16;19.00;99.90